Latest Weather Observations for Wangaratta

IDV60801

Issued at 11:02 pm EST Tuesday 5 May 2015 (issued every 30 minutes, with the page automatically refreshed every 10 minutes)

About weather observations | Map of weather stations | Latest weather observations for VIC | Other Formats
Station Details ID: 082138 Name: WANGARATTA AERO Lat: -36.42 Lon: 146.31 Height: 152.6 m
Data from the previous 72 hours. | See also: Recent months at Wangaratta
Date/Time
EST
Temp
°C
App
Temp
°C
Dew
Point
Rel
Hum
%
Delta-T
°C
Wind Press
QNH
hPa
Press
MSL
hPa
Rain
since 9 am
mm
Dir
 
Spd
km/h
Gust
km/h
Spd
kts
Gust
kts
05/11:00pm 10.3 5.6 3.1 61 3.1 NW 17 24 9 13 1012.6 1012.7 0.0
05/10:30pm 10.6 5.9 2.9 59 3.4 NW 17 24 9 13 1012.4 1012.5 0.0
05/10:00pm 10.3 6.7 2.9 60 3.2 NW 11 17 6 9 1012.3 1012.4 0.0
05/09:30pm 10.7 6.4 3.0 59 3.4 NW 15 24 8 13 1012.1 1012.2 0.0
05/09:00pm 11.6 6.8 2.4 53 4.0 NW 17 28 9 15 1012.0 1012.1 0.0
05/08:30pm 12.0 7.1 2.2 51 4.3 NW 17 24 9 13 1011.3 1011.5 0.0
05/08:00pm 11.9 7.7 1.5 49 4.5 NW 13 19 7 10 1010.8 1010.9 0.0
05/07:30pm 12.5 6.6 1.5 47 4.7 WNW 22 32 12 17 1010.4 1010.5 0.0
05/07:00pm 12.8 7.6 2.6 50 4.5 WNW 19 28 10 15 1010.1 1010.2 0.0
05/06:30pm 12.6 9.6 4.1 56 3.9 WNW 9 11 5 6 1009.4 1009.5 0.0
05/06:00pm 12.6 8.1 4.3 57 3.8 W 17 28 9 15 1008.6 1008.7 0.0
05/05:40pm 12.8 6.3 4.8 58 3.7 W 28 46 15 25 1008.1 1008.2 0.0
05/05:30pm 13.7 8.4 3.2 49 4.7 W 20 35 11 19 1007.9 1008.0 0.0
05/05:00pm 14.5 8.9 3.3 47 5.1 W 22 33 12 18 1007.3 1007.4 0.0
05/04:34pm 15.4 8.7 3.5 45 5.5 WNW 28 46 15 25 1006.7 1006.8 0.0
05/04:30pm 15.2 8.1 3.4 45 5.4 WNW 30 46 16 25 1006.5 1006.6 0.0
05/04:02pm 15.7 9.0 3.8 45 5.5 WNW 28 46 15 25 1006.0 1006.1 0.0
05/04:00pm 15.8 8.8 3.9 45 5.6 WNW 30 46 16 25 1005.9 1006.0 0.0
05/03:30pm 15.8 9.1 5.4 50 5.0 W 30 44 16 24 1005.9 1006.0 0.0
05/03:15pm 15.6 9.2 5.2 50 5.0 WNW 28 46 15 25 1005.6 1005.6 0.0
05/03:00pm 16.0 9.9 6.4 53 4.7 WNW 28 39 15 21 1005.4 1005.4 0.0
05/02:42pm 14.4 7.9 6.3 58 3.9 W 30 46 16 25 1005.4 1005.4 0.0
05/02:32pm 14.0 5.8 6.6 61 3.6 W 39 57 21 31 1005.8 1005.9 0.0
05/02:30pm 13.9 5.3 6.5 61 3.6 W 41 57 22 31 1005.7 1005.7 0.0
05/02:29pm 13.9 5.6 6.3 60 3.7 WSW 39 57 21 31 1005.7 1005.7 0.0
05/02:19pm 13.7 4.9 8.1 69 2.8 WSW 44 74 24 40 1005.4 1005.4 0.0
05/02:06pm 12.6 1.6 8.5 76 2.1 W 56 82 30 44 1005.0 1005.0 0.0
05/02:01pm 14.2 3.3 5.6 56 4.1 W 52 82 28 44 1004.8 1004.8 0.0
05/02:00pm 15.8 5.4 4.2 46 5.5 WNW 48 78 26 42 1004.6 1004.7 0.0
05/01:30pm 18.0 9.0 2.3 35 7.2 WNW 39 61 21 33 1003.1 1003.2 0.0
05/01:03pm 19.6 10.7 3.3 34 7.7 WNW 39 57 21 31 1003.0 1003.1 0.0
05/01:00pm 18.9 9.5 2.3 33 7.7 WNW 41 57 22 31 1002.9 1003.0 0.0
05/12:36pm 19.0 9.7 2.8 34 7.6 WNW 41 61 22 33 1002.9 1003.0 0.0
05/12:30pm 19.0 9.7 2.8 34 7.6 WNW 41 56 22 30 1003.0 1003.1 0.0
05/12:12pm 17.5 10.1 6.7 49 5.4 NW 35 54 19 29 1003.3 1003.4 0.0
05/12:00pm 18.0 12.1 7.7 51 5.3 NW 28 50 15 27 1003.1 1003.2 0.0
05/11:59am 18.0 12.1 7.7 51 5.3 NNW 28 50 15 27 1003.2 1003.3 0.0
05/11:30am 16.5 12.0 6.9 53 4.8 N 20 32 11 17 1003.6 1003.7 0.0
05/11:00am 15.2 11.3 7.0 58 4.1 N 17 20 9 11 1003.7 1003.8 0.0
05/10:30am 14.6 10.7 6.9 60 3.8 N 17 24 9 13 1004.1 1004.2 0.0
05/10:00am 14.8 10.2 6.4 57 4.1 N 20 28 11 15 1004.3 1004.4 0.0
05/09:30am 14.0 10.0 6.8 62 3.5 N 17 20 9 11 1004.6 1004.7 0.0
05/09:00am 13.4 9.4 6.5 63 3.3 NNW 17 22 9 12 1004.6 1004.7 0.0
05/08:30am 13.3 8.8 6.9 65 3.1 N 20 28 11 15 1004.1 1004.2 0.0
05/08:00am 12.4 10.1 7.5 72 2.4 NNW 9 13 5 7 1005.4 1005.4 0.0
05/07:30am 12.0 9.3 7.5 74 2.2 N 11 15 6 8 1005.5 1005.5 0.0
05/07:00am 12.2 8.4 7.5 73 2.3 NNW 17 20 9 11 1005.7 1005.7 0.0
05/06:30am 9.7 8.6 8.5 92 0.6 WSW 4 9 2 5 1005.5 1005.5 0.0
05/06:00am 9.6 7.5 8.4 92 0.6 NE 9 13 5 7 1005.5 1005.5 0.0
05/05:30am 8.6 7.0 7.8 95 0.4 ENE 6 7 3 4 1006.0 1006.1 0.0
05/05:00am 7.9 5.9 7.3 96 0.3 ESE 7 9 4 5 1006.3 1006.4 0.0
05/04:30am 7.4 5.9 7.0 97 0.2 ESE 4 7 2 4 1006.6 1006.7 0.0
05/04:00am 6.9 5.7 6.6 98 0.1 SW 2 9 1 5 1006.9 1007.0 0.0
05/03:30am 6.1 3.4 5.7 97 0.2 SW 9 13 5 7 1007.3 1007.4 0.0
05/03:00am 5.5 3.9 4.6 94 0.4 ENE 2 7 1 4 1007.9 1008.0 0.0
05/02:30am 5.6 4.4 4.4 92 0.5 CALM 0 0 0 0 1008.9 1009.0 0.0
05/02:00am 6.4 5.4 5.4 93 0.4 CALM 0 0 0 0 1009.9 1010.0 0.0
05/01:30am 6.4 5.4 5.5 94 0.4 CALM 0 0 0 0 1010.4 1010.5 0.0
05/01:00am 6.0 3.5 4.8 92 0.5 ESE 7 13 4 7 1010.7 1010.8 0.0
05/12:30am 7.3 4.8 6.6 95 0.3 S 9 9 5 5 1011.1 1011.2 0.0
05/12:00am 6.8 4.2 6.1 95 0.3 WSW 9 11 5 6 1010.9 1011.0 0.0
 
Date/Time
EST
Temp
°C
App
Temp
°C
Dew
Point
Rel
Hum
%
Delta-T
°C
Wind Press
QNH
hPa
Press
MSL
hPa
Rain
since 9 am
mm
Dir
 
Spd
km/h
Gust
km/h
Spd
kts
Gust
kts
04/11:30pm 6.7 4.1 6.0 95 0.3 WSW 9 11 5 6 1010.8 1010.9 0.0
04/11:00pm 6.5 4.3 5.5 93 0.4 S 6 7 3 4 1010.9 1011.0 0.0
04/10:30pm 7.0 6.0 5.5 90 0.7 CALM 0 0 0 0 1011.7 1011.8 0.0
04/10:00pm 8.3 6.4 6.9 91 0.7 SSW 6 6 3 3 1012.0 1012.1 0.0
04/09:30pm 8.3 6.5 7.1 92 0.6 SSW 6 9 3 5 1012.3 1012.4 0.0
04/09:00pm 8.5 6.7 7.1 91 0.7 SW 6 7 3 4 1012.3 1012.4 0.0
04/08:30pm 8.8 7.4 7.3 90 0.7 SW 4 7 2 4 1012.4 1012.5 0.0
04/08:00pm 9.8 8.1 7.4 85 1.2 SSE 6 7 3 4 1012.3 1012.4 0.0
04/07:30pm 9.8 8.5 7.6 86 1.1 SW 4 9 2 5 1012.5 1012.6 0.0
04/07:00pm 11.5 11.2 8.5 82 1.5 CALM 0 0 0 0 1012.5 1012.6 0.0
04/06:30pm 12.0 10.5 8.3 78 1.8 ESE 6 7 3 4 1012.5 1012.6 0.0
04/06:00pm 13.7 11.9 7.2 65 3.2 ENE 6 7 3 4 1012.5 1012.6 0.0
04/05:30pm 16.5 14.6 7.4 55 4.6 N 7 7 4 4 1012.5 1012.6 0.0
04/05:00pm 18.5 16.2 7.3 48 5.7 N 9 15 5 8 1012.6 1012.7 0.0
04/04:30pm 19.5 16.4 7.3 45 6.2 N 13 17 7 9 1012.6 1012.7 0.0
04/04:00pm 19.9 16.9 7.6 45 6.4 NNE 13 20 7 11 1012.6 1012.7 0.0
04/03:30pm 20.1 16.9 6.8 42 6.8 N 13 19 7 10 1012.9 1013.0 0.0
04/03:00pm 19.9 16.9 7.6 45 6.4 N 13 19 7 10 1013.3 1013.4 0.0
04/02:30pm 20.0 17.0 7.7 45 6.4 N 13 20 7 11 1013.1 1013.2 0.0
04/02:00pm 20.0 16.9 7.1 43 6.6 NNE 13 20 7 11 1013.7 1013.8 0.0
04/01:30pm 19.6 17.1 8.3 48 5.9 NNE 11 19 6 10 1014.0 1014.1 0.0
04/01:00pm 19.5 17.1 8.8 50 5.6 NNE 11 17 6 9 1014.4 1014.5 0.0
04/12:30pm 19.2 17.9 9.9 55 5.0 N 7 11 4 6 1015.2 1015.3 0.0
04/12:00pm 17.9 16.1 9.3 57 4.5 NNE 9 19 5 10 1015.6 1015.7 0.0
04/11:30am 17.1 14.7 8.8 58 4.3 NNE 11 15 6 8 1016.0 1016.1 0.0
04/11:00am 16.2 15.2 8.7 61 3.9 NNE 4 9 2 5 1016.5 1016.6 0.0
04/10:30am 15.7 14.5 9.6 67 3.2 NNE 6 7 3 4 1016.7 1016.9 0.0
04/10:00am 13.9 13.0 9.3 74 2.4 E 4 7 2 4 1017.0 1017.2 0.0
04/09:30am 11.8 11.5 8.8 82 1.5 CALM 0 0 0 0 1017.2 1017.4 0.0
04/09:00am 10.4 10.3 9.5 94 0.5 CALM 0 0 0 0 1017.2 1017.4 0.0
04/08:30am 7.1 6.4 7.0 99 0.0 CALM 0 0 0 0 1017.2 1017.4 0.0
04/08:00am 5.5 4.5 5.4 99 0.0 CALM 0 0 0 0 1016.8 1017.0 0.0
04/07:30am 3.3 1.8 3.2 99 0.0 CALM 0 0 0 0 1016.8 1017.0 0.0
04/07:00am 3.1 1.6 3.0 99 0.0 CALM 0 0 0 0 1016.7 1016.9 0.0
04/06:30am 3.5 0.9 3.4 99 0.0 S 6 6 3 3 1016.7 1016.9 0.0
04/06:00am 3.3 1.4 3.0 98 0.1 SSW 2 9 1 5 1016.6 1016.7 0.0
04/05:30am 4.0 2.6 3.7 98 0.1 CALM 0 0 0 0 1016.3 1016.4 0.0
04/05:00am 4.0 2.6 3.7 98 0.1 CALM 0 6 0 3 1016.3 1016.4 0.0
04/04:30am 3.9 2.5 3.5 97 0.2 CALM 0 0 0 0 1016.2 1016.3 0.0
04/04:00am 4.2 2.8 3.6 96 0.2 CALM 0 0 0 0 1016.3 1016.4 0.0
04/03:30am 5.0 3.8 4.6 97 0.2 CALM 0 0 0 0 1016.4 1016.5 0.0
04/03:00am 4.8 3.5 4.1 95 0.3 CALM 0 0 0 0 1016.5 1016.6 0.0
04/02:30am 4.5 2.3 3.6 94 0.4 ESE 4 7 2 4 1016.5 1016.6 0.0
04/02:00am 5.8 3.9 5.1 95 0.3 SSE 4 7 2 4 1016.6 1016.7 0.0
04/01:30am 6.0 4.9 5.3 95 0.3 CALM 0 0 0 0 1016.7 1016.9 0.0
04/01:00am 6.5 4.4 5.8 95 0.3 SW 6 7 3 4 1016.7 1016.9 0.0
04/12:30am 6.3 3.9 5.3 93 0.4 SW 7 7 4 4 1016.8 1017.0 0.0
04/12:00am 6.8 5.8 5.7 93 0.5 CALM 0 0 0 0 1016.9 1017.1 0.0
 
Date/Time
EST
Temp
°C
App
Temp
°C
Dew
Point
Rel
Hum
%
Delta-T
°C
Wind Press
QNH
hPa
Press
MSL
hPa
Rain
since 9 am
mm
Dir
 
Spd
km/h
Gust
km/h
Spd
kts
Gust
kts
03/11:30pm 7.0 5.6 5.6 91 0.6 SSW 2 6 1 3 1017.0 1017.2 0.0
03/11:00pm 7.1 6.0 5.3 88 0.8 CALM 0 0 0 0 1017.2 1017.4 0.0
03/10:30pm 7.9 7.0 5.9 87 0.9 CALM 0 0 0 0 1017.4 1017.6 0.0
03/10:00pm 8.3 7.3 5.6 83 1.2 CALM 0 0 0 0 1017.2 1017.4 0.0
03/09:30pm 9.0 7.8 6.3 83 1.3 S 2 7 1 4 1017.0 1017.2 0.0
03/09:00pm 8.9 7.9 5.8 81 1.4 CALM 0 4 0 2 1016.8 1017.0 0.0
03/08:30pm 9.5 7.7 5.5 76 1.8 ESE 4 7 2 4 1016.7 1016.9 0.0
03/08:00pm 11.0 10.0 5.7 70 2.5 CALM 0 0 0 0 1016.6 1016.7 0.0
03/07:30pm 13.4 12.1 6.0 61 3.5 NNE 2 7 1 4 1016.4 1016.5 0.0
03/07:00pm 13.2 12.6 7.6 69 2.8 CALM 0 4 0 2 1016.3 1016.4 0.0
03/06:30pm 13.3 11.6 7.7 69 2.8 SW 6 7 3 4 1016.2 1016.3 0.0
03/06:00pm 14.5 12.1 7.1 61 3.6 WSW 9 9 5 5 1016.1 1016.2 0.0
03/05:30pm 17.7 15.4 5.9 46 5.8 WSW 7 9 4 5 1016.0 1016.1 0.0
03/05:00pm 20.2 17.5 5.8 39 7.2 WSW 9 11 5 6 1015.9 1016.0 0.0
03/04:30pm 21.3 18.0 4.4 33 8.3 SW 11 15 6 8 1015.9 1016.0 0.0
03/04:00pm 22.1 18.8 4.6 32 8.6 SW 11 15 6 8 1015.9 1016.0 0.0
03/03:30pm 23.1 21.7 5.5 32 8.9 SW 2 9 1 5 1015.8 1015.9 0.0
03/03:00pm 23.0 20.4 5.9 33 8.7 SW 9 17 5 9 1015.8 1015.9 0.0
03/02:30pm 22.2 19.9 4.7 32 8.7 S 6 13 3 7 1016.0 1016.1 0.0
03/02:00pm 22.1 19.0 5.5 34 8.3 SSW 11 17 6 9 1016.0 1016.1 0.0
03/01:30pm 22.0 19.4 6.3 36 8.0 WSW 9 20 5 11 1016.3 1016.4 0.0
03/01:00pm 21.4 18.1 6.5 38 7.6 SSW 13 20 7 11 1016.9 1017.1 0.0
03/12:30pm 21.4 19.2 5.3 35 8.0 NE 6 11 3 6 1017.4 1017.6 0.0
03/12:00pm 20.5 19.6 9.1 48 6.1 SSW 4 11 2 6 1018.0 1018.2 0.0
03/11:30am 19.7 19.9 10.7 56 4.9 CALM 0 0 0 0 1018.3 1018.5 0.0
03/11:00am 18.7 19.1 11.3 62 4.1 CALM 0 0 0 0 1018.7 1018.8 0.0
03/10:30am 16.7 16.8 11.4 71 2.9 SE 2 7 1 4 1019.0 1019.1 0.0
03/10:00am 14.6 14.6 11.0 79 1.9 SW 2 7 1 4 1019.1 1019.2 0.0
03/09:30am 13.2 12.7 10.9 86 1.2 SSW 4 9 2 5 1019.2 1019.3 0.0
03/09:00am 11.7 10.9 10.9 95 0.4 SSW 6 7 3 4 1019.2 1019.3 0.0
03/08:30am 10.5 10.6 10.3 99 0.1 CALM 0 6 0 3 1019.2 1019.3 0.0
03/08:00am 8.0 7.5 7.9 99 0.0 CALM 0 0 0 0 1019.0 1019.1 0.0
03/07:30am 6.0 5.1 5.9 99 0.0 CALM 0 0 0 0 1018.5 1018.6 0.0
03/07:00am 5.4 3.2 5.3 99 0.0 WSW 6 7 3 4 1018.2 1018.4 0.0
03/06:30am 5.5 3.3 5.4 99 0.0 SW 6 9 3 5 1017.9 1018.1 0.0
03/06:00am 5.7 3.6 5.6 99 0.0 E 6 7 3 4 1017.7 1017.9 0.0
03/05:30am 6.7 5.9 6.6 99 0.0 CALM 0 0 0 0 1017.6 1017.8 0.0
03/05:00am 7.0 6.3 6.9 99 0.0 CALM 0 0 0 0 1017.5 1017.7 0.0
03/04:30am 6.2 4.5 6.1 99 0.0 WNW 4 6 2 3 1017.4 1017.6 0.0
03/04:00am 7.0 5.9 6.9 99 0.0 S 2 6 1 3 1017.5 1017.7 0.0
03/03:30am 7.7 5.4 7.6 99 0.0 S 9 11 5 6 1017.5 1017.7 0.0
03/03:00am 6.6 5.8 6.3 98 0.1 CALM 0 0 0 0 1017.5 1017.7 0.0
03/02:30am 7.9 7.0 7.8 99 0.0 SSW 2 6 1 3 1017.4 1017.6 0.0
03/02:00am 8.0 6.4 7.9 99 0.0 S 6 7 3 4 1017.6 1017.8 0.0
03/01:30am 8.2 6.4 7.9 98 0.1 SSW 7 9 4 5 1017.6 1017.8 0.0
03/01:00am 8.0 6.1 7.7 98 0.1 SSW 7 9 4 5 1017.7 1017.9 0.0
03/12:30am 8.5 7.7 8.2 98 0.1 SW 2 7 1 4 1017.8 1018.0 0.0
03/12:00am 8.3 6.7 7.9 97 0.2 SW 6 7 3 4 1017.9 1018.1 0.0
 
Date/Time
EST
Temp
°C
App
Temp
°C
Dew
Point
Rel
Hum
%
Delta-T
°C
Wind Press
QNH
hPa
Press
MSL
hPa
Rain
since 9 am
mm
Dir
 
Spd
km/h
Gust
km/h
Spd
kts
Gust
kts
02/11:30pm 8.9 8.6 8.5 97 0.2 CALM 0 4 0 2 1018.3 1018.5 0.0

Other Formats:

Comma delimited format used in spreadsheet applications
http://www.bom.gov.au/fwo/IDV60801/IDV60801.94889.axf

JavaScript Object Notation format (JSON) in row-major order
http://www.bom.gov.au/fwo/IDV60801/IDV60801.94889.json